createdAt,value
2023-03-22T00:01:47.058Z,32.11
2023-03-22T00:04:16.483Z,32.19
2023-03-22T00:06:45.890Z,32.05
2023-03-22T00:09:12.480Z,32.18
2023-03-22T00:11:39.015Z,32.29
2023-03-22T00:14:06.193Z,32.23
2023-03-22T00:16:33.317Z,32.34
2023-03-22T00:18:59.955Z,32.15
2023-03-22T00:21:29.118Z,32.27
2023-03-22T00:23:55.825Z,32.21
2023-03-22T00:26:22.471Z,32.26
2023-03-22T00:28:48.988Z,32.30
2023-03-22T00:31:15.643Z,32.15
2023-03-22T00:33:42.618Z,32.26
2023-03-22T00:36:10.859Z,32.15
2023-03-22T00:38:42.906Z,32.52
2023-03-22T00:41:11.441Z,31.98
2023-03-22T00:43:38.084Z,32.15
2023-03-22T00:46:05.329Z,31.79
2023-03-22T00:48:31.962Z,32.20
2023-03-22T00:50:58.503Z,31.87
2023-03-22T00:53:26.069Z,32.06
2023-03-22T00:55:52.613Z,32.08
2023-03-22T00:58:19.483Z,32.26
2023-03-22T01:00:46.200Z,32.38
2023-03-22T01:03:14.147Z,32.31
2023-03-22T01:05:42.042Z,32.21
2023-03-22T01:08:08.706Z,32.24
2023-03-22T01:10:36.875Z,32.38
2023-03-22T01:13:04.131Z,32.19
2023-03-22T01:15:30.764Z,31.97
2023-03-22T01:17:57.536Z,32.18
2023-03-22T01:20:24.201Z,32.13
2023-03-22T01:22:51.336Z,32.09
2023-03-22T01:25:18.159Z,32.14
2023-03-22T01:27:44.793Z,32.19
2023-03-22T01:30:14.367Z,32.28
2023-03-22T01:32:40.972Z,32.12
2023-03-22T01:35:08.686Z,32.10
2023-03-22T01:37:36.375Z,32.51
2023-03-22T01:40:04.174Z,32.18
2023-03-22T01:42:31.026Z,32.19
2023-03-22T01:45:32.549Z,32.40
2023-03-22T01:48:05.166Z,32.35
2023-03-22T01:50:37.521Z,32.40
2023-03-22T01:53:06.630Z,32.21
2023-03-22T01:55:34.991Z,32.39
2023-03-22T01:58:08.951Z,32.56
2023-03-22T02:00:44.951Z,32.60
2023-03-22T02:03:32.452Z,32.16
2023-03-22T02:05:59.086Z,32.45
2023-03-22T02:08:26.439Z,32.49
2023-03-22T02:10:57.911Z,32.45
2023-03-22T02:13:42.304Z,32.59
2023-03-22T02:16:50.849Z,32.49
2023-03-22T02:19:24.260Z,32.68
2023-03-22T02:22:21.803Z,32.45
2023-03-22T02:25:27.518Z,32.70
2023-03-22T02:28:08.215Z,32.50
2023-03-22T02:30:59.103Z,32.76
2023-03-22T02:33:48.167Z,32.63
2023-03-22T02:36:30.803Z,32.83
2023-03-22T02:39:06.626Z,32.69
2023-03-22T02:41:39.005Z,32.76
2023-03-22T02:44:14.537Z,32.52
2023-03-22T02:46:47.985Z,32.76
2023-03-22T02:49:16.586Z,32.51
2023-03-22T02:51:46.598Z,32.58
2023-03-22T02:54:18.493Z,32.57
2023-03-22T02:56:59.787Z,32.57
2023-03-22T02:59:26.530Z,32.47
2023-03-22T03:01:55.296Z,32.72
2023-03-22T03:04:40.212Z,32.76
2023-03-22T03:07:09.308Z,32.76
2023-03-22T03:09:37.289Z,32.65
2023-03-22T03:12:08.874Z,32.62
2023-03-22T03:14:35.479Z,32.65
2023-03-22T03:17:13.677Z,32.64
2023-03-22T03:19:57.186Z,33.01
2023-03-22T03:22:35.670Z,32.72
2023-03-22T03:25:06.736Z,32.71
2023-03-22T03:27:39.544Z,32.40
2023-03-22T03:30:14.035Z,32.71
2023-03-22T03:32:53.592Z,32.63
2023-03-22T03:35:26.761Z,32.63
2023-03-22T03:38:01.432Z,32.56
2023-03-22T03:40:32.384Z,32.68
2023-03-22T03:43:01.226Z,32.73
2023-03-22T03:45:27.942Z,32.65
2023-03-22T03:48:01.359Z,32.88
2023-03-22T03:50:27.936Z,32.67
2023-03-22T03:52:55.779Z,32.74
2023-03-22T03:55:22.768Z,32.71
2023-03-22T03:57:49.369Z,32.71
2023-03-22T04:00:16.868Z,32.77
2023-03-22T04:03:04.078Z,32.48
2023-03-22T04:05:43.900Z,32.67
2023-03-22T04:08:10.618Z,32.71
2023-03-22T04:10:38.060Z,32.78
2023-03-22T04:13:04.968Z,32.73
2023-03-22T04:15:32.720Z,32.66
2023-03-22T04:18:03.701Z,32.70
2023-03-22T04:20:31.572Z,32.73
2023-03-22T04:22:58.664Z,32.96
2023-03-22T04:25:30.419Z,32.57
2023-03-22T04:28:07.429Z,32.71
2023-03-22T04:30:36.305Z,32.75
2023-03-22T04:33:22.835Z,32.74
2023-03-22T04:36:10.838Z,32.80
2023-03-22T04:38:51.595Z,32.59
2023-03-22T04:41:21.859Z,32.81
2023-03-22T04:43:51.645Z,32.79
2023-03-22T04:46:21.265Z,32.65
2023-03-22T04:48:54.262Z,32.65
2023-03-22T04:51:21.455Z,32.88
2023-03-22T04:54:12.850Z,32.50
2023-03-22T04:56:41.645Z,32.60
2023-03-22T04:59:08.336Z,32.80
2023-03-22T05:01:35.865Z,32.58
2023-03-22T05:04:10.814Z,32.67
2023-03-22T05:06:37.562Z,32.58
2023-03-22T05:09:11.261Z,32.69
2023-03-22T05:11:38.172Z,32.89
2023-03-22T05:14:18.777Z,32.92
2023-03-22T05:16:48.478Z,32.67
2023-03-22T05:19:15.481Z,32.60
2023-03-22T05:21:46.747Z,32.67
2023-03-22T05:24:13.386Z,32.72
2023-03-22T05:26:42.445Z,32.28
2023-03-22T05:29:10.972Z,32.55
2023-03-22T05:31:57.549Z,32.56
2023-03-22T05:34:24.233Z,32.55
2023-03-22T05:36:51.547Z,32.47
2023-03-22T05:39:26.970Z,32.17
2023-03-22T05:41:54.198Z,32.09
2023-03-22T05:44:20.987Z,32.52
2023-03-22T05:47:06.940Z,32.51
2023-03-22T05:49:50.509Z,32.86
2023-03-22T05:52:17.820Z,32.69
2023-03-22T05:54:56.737Z,32.79
2023-03-22T05:57:23.317Z,32.51
2023-03-22T05:59:49.990Z,32.80
2023-03-22T06:02:24.258Z,32.61
2023-03-22T06:04:52.086Z,32.63
2023-03-22T06:07:18.732Z,32.65
2023-03-22T06:09:50.448Z,32.58
2023-03-22T06:12:24.566Z,32.31
2023-03-22T06:14:58.854Z,32.31
2023-03-22T06:17:40.708Z,32.41
2023-03-22T06:20:12.246Z,32.60
2023-03-22T06:22:42.777Z,32.17
2023-03-22T06:25:10.142Z,32.41
2023-03-22T06:27:42.264Z,32.41
2023-03-22T06:30:09.526Z,32.30
2023-03-22T06:32:50.223Z,32.17
2023-03-22T06:35:16.937Z,32.42
2023-03-22T06:37:45.669Z,32.52
2023-03-22T06:40:13.052Z,32.30
2023-03-22T06:42:39.797Z,32.45
2023-03-22T06:45:14.578Z,32.45
2023-03-22T06:47:44.677Z,32.53
2023-03-22T06:50:28.257Z,32.20
2023-03-22T06:53:05.751Z,32.39
2023-03-22T06:55:34.621Z,32.29
2023-03-22T06:58:10.429Z,32.30
2023-03-22T07:00:38.687Z,32.16
2023-03-22T07:03:07.100Z,32.36
2023-03-22T07:06:00.838Z,32.25
2023-03-22T07:08:30.688Z,32.06
2023-03-22T07:10:57.906Z,32.18
2023-03-22T07:13:24.714Z,32.03
2023-03-22T07:15:56.788Z,32.23
2023-03-22T07:18:33.600Z,31.92
2023-03-22T07:21:00.284Z,31.90
2023-03-22T07:23:27.096Z,32.15
2023-03-22T07:26:00.675Z,32.17
2023-03-22T07:28:31.240Z,32.02
2023-03-22T07:31:07.240Z,32.24
2023-03-22T07:33:44.841Z,32.16
2023-03-22T07:36:11.738Z,32.14
2023-03-22T07:38:38.481Z,32.46
2023-03-22T07:41:09.284Z,31.96
2023-03-22T07:43:56.874Z,31.93
2023-03-22T07:46:29.738Z,31.86
2023-03-22T07:49:17.211Z,31.93
2023-03-22T07:52:22.308Z,31.78
2023-03-22T07:54:48.986Z,32.02
2023-03-22T07:57:16.433Z,31.86
2023-03-22T07:59:48.163Z,31.99
2023-03-22T08:02:16.074Z,31.80
2023-03-22T08:04:52.227Z,32.02
2023-03-22T08:07:38.583Z,31.90
2023-03-22T08:10:05.659Z,31.85
2023-03-22T08:12:33.995Z,31.72
2023-03-22T08:15:10.642Z,31.58
2023-03-22T08:17:37.457Z,31.59
2023-03-22T08:20:12.948Z,31.51
2023-03-22T08:22:46.464Z,31.54
2023-03-22T08:25:39.035Z,31.56
2023-03-22T08:28:09.879Z,31.72
2023-03-22T08:30:37.285Z,31.83
2023-03-22T08:33:04.386Z,31.71
2023-03-22T08:35:32.424Z,31.89
2023-03-22T08:37:59.106Z,31.90
2023-03-22T08:40:34.580Z,32.18
2023-03-22T08:43:02.481Z,32.10
2023-03-22T08:45:29.975Z,32.14
2023-03-22T08:48:07.776Z,30.50
2023-03-22T08:50:51.062Z,29.65
2023-03-22T08:53:28.477Z,29.49
2023-03-22T08:56:10.554Z,30.94
2023-03-22T08:58:47.767Z,30.83
2023-03-22T09:01:44.556Z,30.46
2023-03-22T09:04:12.027Z,30.51
2023-03-22T09:06:42.850Z,30.61
2023-03-22T09:09:11.455Z,30.89
2023-03-22T09:11:40.365Z,30.49
2023-03-22T09:14:09.528Z,30.58
2023-03-22T09:16:36.323Z,30.89
2023-03-22T09:19:06.584Z,30.94
2023-03-22T09:21:34.156Z,30.82
2023-03-22T09:24:09.109Z,31.07
2023-03-22T09:26:41.672Z,30.71
2023-03-22T09:29:08.277Z,31.09
2023-03-22T09:31:35.350Z,29.51
2023-03-22T09:34:15.068Z,29.29
2023-03-22T09:36:42.419Z,28.88
2023-03-22T09:39:10.268Z,28.85
2023-03-22T09:41:52.861Z,28.49
2023-03-22T09:44:37.984Z,28.71
2023-03-22T09:47:10.700Z,28.79
2023-03-22T09:49:52.649Z,28.97
2023-03-22T09:52:20.401Z,28.64
2023-03-22T09:54:47.040Z,28.56
2023-03-22T09:57:26.274Z,27.71
2023-03-22T10:00:20.828Z,27.74
2023-03-22T10:02:51.173Z,27.64
2023-03-22T10:05:28.823Z,28.06
2023-03-22T10:08:18.567Z,27.84
2023-03-22T10:10:45.233Z,28.01
2023-03-22T10:13:36.140Z,28.19
2023-03-22T10:16:04.113Z,28.04
2023-03-22T10:18:37.436Z,27.89
2023-03-22T10:21:08.811Z,27.72
2023-03-22T10:23:49.138Z,27.85
2023-03-22T10:26:37.037Z,27.78
2023-03-22T10:29:39.676Z,27.55
2023-03-22T10:32:29.749Z,27.61
2023-03-22T10:34:56.397Z,27.81
2023-03-22T10:37:24.887Z,27.91
2023-03-22T10:39:53.733Z,28.06
2023-03-22T10:42:25.193Z,28.13
2023-03-22T10:44:57.332Z,28.29
2023-03-22T10:47:31.413Z,28.65
2023-03-22T10:49:58.286Z,28.49
2023-03-22T10:52:51.671Z,28.46
2023-03-22T10:55:18.396Z,28.54
2023-03-22T10:57:51.549Z,28.72
2023-03-22T11:00:18.385Z,28.66
2023-03-22T11:02:52.419Z,28.76
2023-03-22T11:05:24.167Z,28.88
2023-03-22T11:07:51.115Z,30.55
2023-03-22T11:10:21.755Z,30.01
2023-03-22T11:13:10.146Z,29.38
2023-03-22T11:15:41.394Z,29.49
2023-03-22T11:18:12.998Z,29.32
2023-03-22T11:20:41.144Z,29.23
2023-03-22T11:23:10.416Z,29.10
2023-03-22T11:25:37.699Z,28.90
2023-03-22T11:28:04.181Z,29.13
2023-03-22T11:30:30.893Z,28.94
2023-03-22T11:33:03.222Z,29.24
2023-03-22T11:35:30.570Z,28.83
2023-03-22T11:37:57.292Z,29.06
2023-03-22T11:40:28.605Z,29.24
2023-03-22T11:43:10.301Z,29.09
2023-03-22T11:45:41.150Z,28.77
2023-03-22T11:48:24.777Z,28.74
2023-03-22T11:50:56.268Z,29.16
2023-03-22T11:53:24.482Z,28.50
2023-03-22T11:55:51.526Z,28.68
2023-03-22T11:58:29.095Z,28.58
2023-03-22T12:00:58.588Z,28.59
2023-03-22T12:03:38.934Z,28.70
2023-03-22T12:06:13.275Z,28.47
2023-03-22T12:08:45.284Z,28.67
2023-03-22T12:11:16.131Z,28.76
2023-03-22T12:13:51.881Z,28.37
2023-03-22T12:16:24.783Z,28.19
2023-03-22T12:19:07.732Z,28.62
2023-03-22T12:21:34.418Z,28.36
2023-03-22T12:24:02.292Z,28.44
2023-03-22T12:26:29.568Z,28.46
2023-03-22T12:29:00.511Z,28.57
2023-03-22T12:31:37.444Z,28.44
2023-03-22T12:34:10.007Z,28.24
2023-03-22T12:36:43.161Z,28.54
2023-03-22T12:39:13.815Z,28.01
2023-03-22T12:41:42.578Z,28.48
2023-03-22T12:44:36.179Z,27.91
2023-03-22T12:47:24.498Z,28.29
2023-03-22T12:49:53.213Z,28.41
2023-03-22T12:52:37.657Z,28.62
2023-03-22T12:55:18.200Z,28.47
2023-03-22T12:57:51.194Z,28.01
2023-03-22T13:00:18.102Z,28.46
2023-03-22T13:03:10.693Z,28.21
2023-03-22T13:05:37.797Z,28.39
2023-03-22T13:08:05.730Z,28.62
2023-03-22T13:10:36.865Z,28.57
2023-03-22T13:13:21.526Z,28.69
2023-03-22T13:16:04.180Z,28.65
2023-03-22T13:18:37.839Z,28.51
2023-03-22T13:21:13.995Z,28.38
2023-03-22T13:24:04.627Z,28.42
2023-03-22T13:26:40.192Z,28.58
2023-03-22T13:29:32.829Z,28.55
2023-03-22T13:32:03.765Z,28.65
2023-03-22T13:34:31.817Z,28.95
2023-03-22T13:36:58.504Z,28.82
2023-03-22T13:39:28.255Z,28.76
2023-03-22T13:42:12.812Z,28.63
2023-03-22T13:44:40.563Z,28.57
2023-03-22T13:47:30.670Z,28.89
2023-03-22T13:50:22.561Z,29.04
2023-03-22T13:52:59.578Z,28.63
2023-03-22T13:55:38.507Z,28.76
2023-03-22T13:58:05.926Z,28.79
2023-03-22T14:00:33.675Z,28.82
2023-03-22T14:03:02.280Z,28.65
2023-03-22T14:05:30.430Z,29.05
2023-03-22T14:07:57.595Z,29.10
2023-03-22T14:10:46.605Z,29.02
2023-03-22T14:13:29.980Z,28.94
2023-03-22T14:15:58.920Z,29.32
2023-03-22T14:18:28.017Z,28.94
2023-03-22T14:20:57.916Z,28.88
